RYR44ZN LFOB-LIEE
Flight info
| Callsign | RYR44ZN |
|---|---|
| Flight time | 1h 44m |
| Altitude | 37000 |
| Route | OKASI DCT OKEKO DCT MOU DCT MADIV DCT MOKIP DCT TUFTA DCT KOGAS DCT VEVAR DCT BARSO DCT KOLON DCT LOKDU DCT PELOS DCT IPROM DCT RAMEN DCT KOVAS DCT NEVOT/N0400F180 M871 CAR |
| Aircraft | B38M/M-SDE1FGHILORVWXY/HB1 |
Departure
| Time | 2026-05-06 18:26 |
|---|---|
| Airport | Beauvais-Tillé airport (LFOB) |
Arrival
| Time | 2026-05-06 20:10 |
|---|---|
| Airport | Cagliari Elmas Airport (LIEE) |
| Time | Latitude | Longitude | Altitude | Speed | Heading |
|---|---|---|---|---|---|
| 2026-05-06 17:59 | 49.45951 | 2.11525 | 362 ft | 0 kts | 311° |
| 2026-05-06 18:17 | 49.45948 | 2.11530 | 352 ft | 3 kts | 311° |
| 2026-05-06 18:17 | 49.45932 | 2.11563 | 355 ft | 4 kts | 298° |
| 2026-05-06 18:17 | 49.45924 | 2.11600 | 359 ft | 4 kts | 270° |
| 2026-05-06 18:18 | 49.45930 | 2.11628 | 358 ft | 1 kts | 223° |
| 2026-05-06 18:18 | 49.45930 | 2.11629 | 358 ft | 1 kts | 223° |
| 2026-05-06 18:20 | 49.45917 | 2.11611 | 361 ft | 5 kts | 221° |
| 2026-05-06 18:21 | 49.45879 | 2.11560 | 354 ft | 9 kts | 221° |
| 2026-05-06 18:21 | 49.45814 | 2.11501 | 349 ft | 13 kts | 176° |
| 2026-05-06 18:21 | 49.45737 | 2.11601 | 357 ft | 14 kts | 141° |
| 2026-05-06 18:21 | 49.45660 | 2.11576 | 353 ft | 14 kts | 219° |
| 2026-05-06 18:22 | 49.45576 | 2.11462 | 350 ft | 19 kts | 220° |
| 2026-05-06 18:22 | 49.45473 | 2.11328 | 344 ft | 15 kts | 209° |
| 2026-05-06 18:22 | 49.45387 | 2.11413 | 337 ft | 19 kts | 124° |
| 2026-05-06 18:22 | 49.45303 | 2.11604 | 335 ft | 24 kts | 123° |
| 2026-05-06 18:23 | 49.45204 | 2.11834 | 338 ft | 27 kts | 124° |
| 2026-05-06 18:23 | 49.45089 | 2.12097 | 336 ft | 32 kts | 123° |
| 2026-05-06 18:23 | 49.45033 | 2.12398 | 331 ft | 32 kts | 93° |
| 2026-05-06 18:23 | 49.45012 | 2.12721 | 326 ft | 28 kts | 112° |
| 2026-05-06 18:24 | 49.44903 | 2.12985 | 318 ft | 32 kts | 123° |
| 2026-05-06 18:24 | 49.44785 | 2.13256 | 311 ft | 22 kts | 130° |
| 2026-05-06 18:24 | 49.44655 | 2.13243 | 309 ft | 23 kts | 241° |
| 2026-05-06 18:24 | 49.44681 | 2.13033 | 315 ft | 21 kts | 303° |
| 2026-05-06 18:25 | 49.44761 | 2.12848 | 317 ft | 21 kts | 303° |
| 2026-05-06 18:25 | 49.44940 | 2.12438 | 327 ft | 81 kts | 304° |
| 2026-05-06 18:25 | 49.45392 | 2.11392 | 345 ft | 153 kts | 304° |
| 2026-05-06 18:25 | 49.46041 | 2.09865 | 835 ft | 182 kts | 305° |
| 2026-05-06 18:26 | 49.46663 | 2.08235 | 2052 ft | 176 kts | 292° |
| 2026-05-06 18:26 | 49.46875 | 2.06228 | 2516 ft | 203 kts | 276° |
| 2026-05-06 18:26 | 49.46939 | 2.03955 | 2715 ft | 222 kts | 274° |
| 2026-05-06 18:26 | 49.46959 | 2.01477 | 2824 ft | 242 kts | 269° |
| 2026-05-06 18:27 | 49.46392 | 1.98979 | 2874 ft | 256 kts | 237° |
| 2026-05-06 18:27 | 49.45039 | 1.97165 | 3001 ft | 264 kts | 209° |
| 2026-05-06 18:27 | 49.43392 | 1.95928 | 3144 ft | 269 kts | 207° |
| 2026-05-06 18:27 | 49.41705 | 1.94654 | 3332 ft | 272 kts | 207° |
| 2026-05-06 18:28 | 49.40023 | 1.93378 | 4444 ft | 267 kts | 206° |
| 2026-05-06 18:28 | 49.38344 | 1.92099 | 5538 ft | 272 kts | 207° |
| 2026-05-06 18:28 | 49.36737 | 1.90566 | 6620 ft | 274 kts | 213° |
| 2026-05-06 18:28 | 49.35134 | 1.88941 | 7626 ft | 277 kts | 213° |
| 2026-05-06 18:29 | 49.33513 | 1.87311 | 8655 ft | 280 kts | 214° |
| 2026-05-06 18:29 | 49.31870 | 1.85669 | 9661 ft | 284 kts | 214° |
| 2026-05-06 18:29 | 49.30194 | 1.83998 | 10456 ft | 293 kts | 214° |
| 2026-05-06 18:29 | 49.28427 | 1.82237 | 10903 ft | 313 kts | 214° |
| 2026-05-06 18:30 | 49.26535 | 1.80359 | 11304 ft | 334 kts | 213° |
| 2026-05-06 18:30 | 49.24526 | 1.78366 | 11726 ft | 352 kts | 214° |
| 2026-05-06 18:30 | 49.22378 | 1.76430 | 12242 ft | 366 kts | 204° |
| 2026-05-06 18:30 | 49.19931 | 1.75469 | 13014 ft | 371 kts | 191° |
| 2026-05-06 18:31 | 49.17370 | 1.74725 | 13692 ft | 378 kts | 191° |
| 2026-05-06 18:31 | 49.14763 | 1.73987 | 14394 ft | 381 kts | 191° |
| 2026-05-06 18:31 | 49.12141 | 1.73260 | 15078 ft | 384 kts | 191° |
| 2026-05-06 18:31 | 49.09502 | 1.72533 | 15728 ft | 388 kts | 191° |
| 2026-05-06 18:32 | 49.06839 | 1.71805 | 16379 ft | 391 kts | 191° |
| 2026-05-06 18:32 | 49.04142 | 1.71067 | 17043 ft | 394 kts | 191° |
| 2026-05-06 18:32 | 49.01401 | 1.70751 | 17666 ft | 398 kts | 175° |
| 2026-05-06 18:32 | 48.98742 | 1.71713 | 18308 ft | 401 kts | 157° |
| 2026-05-06 18:33 | 48.96351 | 1.73906 | 18810 ft | 405 kts | 139° |
| 2026-05-06 18:33 | 48.94388 | 1.77001 | 19347 ft | 407 kts | 132° |
| 2026-05-06 18:33 | 48.92504 | 1.80227 | 19838 ft | 411 kts | 131° |
| 2026-05-06 18:33 | 48.90612 | 1.83505 | 20323 ft | 414 kts | 131° |
| 2026-05-06 18:34 | 48.88710 | 1.86827 | 20814 ft | 416 kts | 130° |
| 2026-05-06 18:34 | 48.86805 | 1.90168 | 21318 ft | 420 kts | 130° |
| 2026-05-06 18:34 | 48.84887 | 1.93532 | 21830 ft | 422 kts | 130° |
| 2026-05-06 18:34 | 48.82977 | 1.96879 | 22278 ft | 426 kts | 130° |
| 2026-05-06 18:35 | 48.81077 | 2.00392 | 22869 ft | 426 kts | 123° |
| 2026-05-06 18:35 | 48.79446 | 2.04108 | 23308 ft | 429 kts | 123° |
| 2026-05-06 18:35 | 48.77762 | 2.07853 | 23815 ft | 430 kts | 123° |
| 2026-05-06 18:35 | 48.76053 | 2.11601 | 24171 ft | 435 kts | 124° |
| 2026-05-06 18:36 | 48.74318 | 2.15368 | 24641 ft | 437 kts | 123° |
| 2026-05-06 18:36 | 48.72569 | 2.19150 | 25048 ft | 439 kts | 125° |
| 2026-05-06 18:36 | 48.70741 | 2.22850 | 25621 ft | 438 kts | 133° |
| 2026-05-06 18:36 | 48.68385 | 2.25796 | 26013 ft | 441 kts | 148° |
| 2026-05-06 18:37 | 48.65785 | 2.28256 | 26429 ft | 443 kts | 148° |
| 2026-05-06 18:37 | 48.63155 | 2.30731 | 26817 ft | 446 kts | 148° |
| 2026-05-06 18:37 | 48.60505 | 2.33188 | 27234 ft | 448 kts | 149° |
| 2026-05-06 18:37 | 48.57847 | 2.35628 | 27652 ft | 450 kts | 149° |
| 2026-05-06 18:38 | 48.55155 | 2.38088 | 28044 ft | 452 kts | 149° |
| 2026-05-06 18:38 | 48.52454 | 2.40552 | 28441 ft | 455 kts | 149° |
| 2026-05-06 18:38 | 48.49741 | 2.43023 | 28803 ft | 457 kts | 149° |
| 2026-05-06 18:38 | 48.47012 | 2.45506 | 29164 ft | 459 kts | 149° |
| 2026-05-06 18:39 | 48.44268 | 2.47999 | 29531 ft | 461 kts | 149° |
| 2026-05-06 18:39 | 48.41547 | 2.50466 | 29870 ft | 464 kts | 149° |
| 2026-05-06 18:39 | 48.38776 | 2.52977 | 30291 ft | 463 kts | 149° |
| 2026-05-06 18:40 | 48.33265 | 2.57961 | 31056 ft | 462 kts | 149° |
| 2026-05-06 18:40 | 48.30513 | 2.60446 | 31527 ft | 459 kts | 149° |
| 2026-05-06 18:40 | 48.27763 | 2.62821 | 31984 ft | 456 kts | 154° |
| 2026-05-06 18:40 | 48.24918 | 2.64973 | 32306 ft | 457 kts | 153° |
| 2026-05-06 18:41 | 48.22078 | 2.67151 | 32631 ft | 458 kts | 153° |
| 2026-05-06 18:41 | 48.19238 | 2.69347 | 32948 ft | 460 kts | 153° |
| 2026-05-06 18:41 | 48.16434 | 2.71521 | 33211 ft | 462 kts | 153° |
| 2026-05-06 18:41 | 48.13569 | 2.73741 | 33528 ft | 462 kts | 153° |
| 2026-05-06 18:42 | 48.10711 | 2.75954 | 33883 ft | 462 kts | 153° |
| 2026-05-06 18:42 | 48.07819 | 2.78057 | 34154 ft | 462 kts | 158° |
| 2026-05-06 18:42 | 48.04842 | 2.79889 | 34444 ft | 462 kts | 158° |
| 2026-05-06 18:42 | 48.01875 | 2.81752 | 34719 ft | 463 kts | 158° |
| 2026-05-06 18:43 | 47.98910 | 2.83636 | 35003 ft | 462 kts | 158° |
| 2026-05-06 18:43 | 47.95952 | 2.85522 | 35292 ft | 462 kts | 158° |
| 2026-05-06 18:43 | 47.93001 | 2.87405 | 35572 ft | 462 kts | 158° |
| 2026-05-06 18:43 | 47.90033 | 2.89297 | 35859 ft | 462 kts | 158° |
| 2026-05-06 18:44 | 47.87079 | 2.91178 | 36129 ft | 462 kts | 158° |
| 2026-05-06 18:44 | 47.84121 | 2.93059 | 36393 ft | 462 kts | 158° |
| 2026-05-06 18:44 | 47.81162 | 2.94938 | 36659 ft | 462 kts | 158° |
| 2026-05-06 18:44 | 47.78243 | 2.96789 | 36910 ft | 462 kts | 158° |
| 2026-05-06 18:45 | 47.75284 | 2.98664 | 36969 ft | 462 kts | 158° |
| 2026-05-06 18:45 | 47.69375 | 3.02401 | 36950 ft | 460 kts | 158° |
| 2026-05-06 18:46 | 47.63475 | 3.06123 | 36939 ft | 461 kts | 158° |
| 2026-05-06 18:46 | 47.57567 | 3.09841 | 36945 ft | 461 kts | 158° |
| 2026-05-06 18:47 | 47.51962 | 3.14401 | 36961 ft | 461 kts | 144° |
| 2026-05-06 18:47 | 47.46784 | 3.19990 | 36930 ft | 463 kts | 145° |
| 2026-05-06 18:48 | 47.41576 | 3.25640 | 36946 ft | 464 kts | 145° |
| 2026-05-06 18:48 | 47.36372 | 3.31293 | 36946 ft | 464 kts | 145° |
| 2026-05-06 18:49 | 47.31170 | 3.36929 | 36938 ft | 464 kts | 145° |
| 2026-05-06 18:49 | 47.25964 | 3.42556 | 36944 ft | 464 kts | 145° |
| 2026-05-06 18:50 | 47.20756 | 3.48170 | 36940 ft | 464 kts | 145° |
| 2026-05-06 18:50 | 47.15544 | 3.53776 | 36934 ft | 464 kts | 145° |
| 2026-05-06 18:51 | 47.10364 | 3.59332 | 36940 ft | 464 kts | 146° |
| 2026-05-06 18:51 | 47.05131 | 3.64933 | 36941 ft | 465 kts | 146° |
| 2026-05-06 18:52 | 46.99902 | 3.70515 | 36933 ft | 465 kts | 146° |
| 2026-05-06 18:52 | 46.94674 | 3.76082 | 36933 ft | 465 kts | 146° |
| 2026-05-06 18:53 | 46.89438 | 3.81643 | 36923 ft | 465 kts | 146° |
| 2026-05-06 18:53 | 46.84194 | 3.87200 | 36927 ft | 466 kts | 146° |
| 2026-05-06 18:54 | 46.78948 | 3.92745 | 36926 ft | 465 kts | 146° |
| 2026-05-06 18:54 | 46.73733 | 3.98245 | 36929 ft | 465 kts | 146° |
| 2026-05-06 18:55 | 46.68479 | 4.03771 | 36930 ft | 465 kts | 146° |
| 2026-05-06 18:55 | 46.63232 | 4.09276 | 36931 ft | 464 kts | 146° |
| 2026-05-06 18:56 | 46.57992 | 4.14761 | 36933 ft | 464 kts | 146° |
| 2026-05-06 18:56 | 46.52746 | 4.20239 | 36934 ft | 464 kts | 146° |
| 2026-05-06 18:57 | 46.47497 | 4.25705 | 36933 ft | 464 kts | 146° |
| 2026-05-06 18:57 | 46.42247 | 4.31162 | 36936 ft | 464 kts | 146° |
| 2026-05-06 18:58 | 46.37034 | 4.36565 | 36928 ft | 464 kts | 146° |
| 2026-05-06 18:58 | 46.31783 | 4.41995 | 36927 ft | 463 kts | 147° |
| 2026-05-06 18:59 | 46.26537 | 4.47406 | 36921 ft | 463 kts | 147° |
| 2026-05-06 18:59 | 46.21289 | 4.52808 | 36930 ft | 463 kts | 147° |
| 2026-05-06 19:00 | 46.16032 | 4.58205 | 36933 ft | 463 kts | 147° |
| 2026-05-06 19:00 | 46.10808 | 4.63556 | 36932 ft | 463 kts | 147° |
| 2026-05-06 19:01 | 46.05552 | 4.68926 | 36931 ft | 463 kts | 147° |
| 2026-05-06 19:01 | 46.00283 | 4.74298 | 36935 ft | 464 kts | 147° |
| 2026-05-06 19:02 | 45.95021 | 4.79649 | 36930 ft | 462 kts | 148° |
| 2026-05-06 19:02 | 45.89768 | 4.84979 | 36933 ft | 462 kts | 148° |
| 2026-05-06 19:03 | 45.84511 | 4.90299 | 36930 ft | 462 kts | 148° |
| 2026-05-06 19:03 | 45.80139 | 4.94715 | 36936 ft | 462 kts | 148° |
| 2026-05-06 19:04 | 45.74016 | 5.00884 | 36944 ft | 462 kts | 148° |
| 2026-05-06 19:04 | 45.69603 | 5.05320 | 36937 ft | 462 kts | 148° |
| 2026-05-06 19:05 | 45.64366 | 5.10574 | 36917 ft | 462 kts | 148° |
| 2026-05-06 19:05 | 45.59090 | 5.15851 | 36928 ft | 463 kts | 148° |
| 2026-05-06 19:06 | 45.53818 | 5.21116 | 36938 ft | 462 kts | 149° |
| 2026-05-06 19:06 | 45.48540 | 5.26374 | 36937 ft | 462 kts | 149° |
| 2026-05-06 19:07 | 45.43262 | 5.31620 | 36932 ft | 462 kts | 149° |
| 2026-05-06 19:07 | 45.37976 | 5.36860 | 36938 ft | 462 kts | 149° |
| 2026-05-06 19:08 | 45.32697 | 5.42081 | 36923 ft | 462 kts | 149° |
| 2026-05-06 19:08 | 45.27454 | 5.47256 | 36943 ft | 462 kts | 149° |
| 2026-05-06 19:09 | 45.22171 | 5.52457 | 36940 ft | 461 kts | 150° |
| 2026-05-06 19:09 | 45.16895 | 5.57640 | 36943 ft | 461 kts | 150° |
| 2026-05-06 19:10 | 45.11615 | 5.62815 | 36954 ft | 461 kts | 150° |
| 2026-05-06 19:10 | 45.06324 | 5.67989 | 36927 ft | 461 kts | 150° |
| 2026-05-06 19:11 | 45.01075 | 5.73110 | 36954 ft | 462 kts | 150° |
| 2026-05-06 19:11 | 44.95792 | 5.78252 | 36953 ft | 460 kts | 150° |
| 2026-05-06 19:12 | 44.90523 | 5.83369 | 36956 ft | 459 kts | 150° |
| 2026-05-06 19:12 | 44.85253 | 5.88476 | 36957 ft | 460 kts | 150° |
| 2026-05-06 19:13 | 44.80029 | 5.93526 | 36944 ft | 460 kts | 151° |
| 2026-05-06 19:13 | 44.74722 | 5.98647 | 36958 ft | 460 kts | 151° |
| 2026-05-06 19:14 | 44.69426 | 6.03742 | 36961 ft | 460 kts | 151° |
| 2026-05-06 19:14 | 44.64140 | 6.08819 | 36951 ft | 460 kts | 151° |
| 2026-05-06 19:15 | 44.58857 | 6.13880 | 36952 ft | 459 kts | 151° |
| 2026-05-06 19:15 | 44.53618 | 6.18889 | 36950 ft | 458 kts | 151° |
| 2026-05-06 19:16 | 44.48346 | 6.23918 | 36946 ft | 458 kts | 151° |
| 2026-05-06 19:16 | 44.43070 | 6.28939 | 36932 ft | 458 kts | 152° |
| 2026-05-06 19:17 | 44.37787 | 6.33956 | 36953 ft | 459 kts | 152° |
| 2026-05-06 19:17 | 44.32499 | 6.38966 | 36933 ft | 459 kts | 152° |
| 2026-05-06 19:18 | 44.27212 | 6.43964 | 36948 ft | 459 kts | 152° |
| 2026-05-06 19:18 | 44.21965 | 6.48915 | 36931 ft | 457 kts | 152° |
| 2026-05-06 19:19 | 44.16683 | 6.53886 | 36922 ft | 455 kts | 152° |
| 2026-05-06 19:19 | 44.11423 | 6.58827 | 36903 ft | 455 kts | 152° |
| 2026-05-06 19:20 | 44.06169 | 6.63752 | 36912 ft | 456 kts | 152° |
| 2026-05-06 19:20 | 44.00932 | 6.68651 | 36906 ft | 457 kts | 153° |
| 2026-05-06 19:21 | 43.95658 | 6.73576 | 36886 ft | 456 kts | 153° |
| 2026-05-06 19:21 | 43.90391 | 6.78483 | 36893 ft | 455 kts | 153° |
| 2026-05-06 19:22 | 43.85124 | 6.83379 | 36889 ft | 456 kts | 153° |
| 2026-05-06 19:22 | 43.79852 | 6.88268 | 36858 ft | 455 kts | 153° |
| 2026-05-06 19:23 | 43.74619 | 6.93113 | 36857 ft | 455 kts | 153° |
| 2026-05-06 19:23 | 43.69287 | 6.97765 | 36859 ft | 444 kts | 164° |
| 2026-05-06 19:24 | 43.63630 | 7.01312 | 36854 ft | 447 kts | 162° |
| 2026-05-06 19:24 | 43.57982 | 7.04902 | 36860 ft | 447 kts | 162° |
| 2026-05-06 19:25 | 43.52321 | 7.08483 | 36863 ft | 447 kts | 162° |
| 2026-05-06 19:25 | 43.46700 | 7.12030 | 36861 ft | 447 kts | 162° |
| 2026-05-06 19:26 | 43.41042 | 7.15593 | 36861 ft | 447 kts | 162° |
| 2026-05-06 19:26 | 43.35372 | 7.19156 | 36875 ft | 448 kts | 162° |
| 2026-05-06 19:27 | 43.29708 | 7.22708 | 36885 ft | 447 kts | 162° |
| 2026-05-06 19:27 | 43.24078 | 7.26232 | 36903 ft | 447 kts | 162° |
| 2026-05-06 19:28 | 43.18408 | 7.29773 | 37145 ft | 448 kts | 162° |
| 2026-05-06 19:28 | 43.15568 | 7.31544 | 37278 ft | 449 kts | 162° |
| 2026-05-06 19:28 | 43.12718 | 7.33320 | 37447 ft | 449 kts | 162° |
| 2026-05-06 19:28 | 43.09869 | 7.35093 | 37637 ft | 449 kts | 162° |
| 2026-05-06 19:29 | 43.07022 | 7.36862 | 37793 ft | 449 kts | 162° |
| 2026-05-06 19:29 | 43.04168 | 7.38635 | 37954 ft | 450 kts | 162° |
| 2026-05-06 19:29 | 43.01322 | 7.40401 | 38122 ft | 450 kts | 162° |
| 2026-05-06 19:29 | 42.98468 | 7.42170 | 38237 ft | 450 kts | 162° |
| 2026-05-06 19:30 | 42.95614 | 7.43937 | 38398 ft | 450 kts | 162° |
| 2026-05-06 19:30 | 42.89889 | 7.47475 | 38432 ft | 451 kts | 162° |
| 2026-05-06 19:31 | 42.84208 | 7.50980 | 38444 ft | 451 kts | 162° |
| 2026-05-06 19:31 | 42.75623 | 7.56263 | 38433 ft | 451 kts | 162° |
| 2026-05-06 19:32 | 42.69897 | 7.59778 | 38426 ft | 451 kts | 162° |
| 2026-05-06 19:32 | 42.64187 | 7.63276 | 38445 ft | 449 kts | 162° |
| 2026-05-06 19:33 | 42.58485 | 7.66761 | 38451 ft | 449 kts | 162° |
| 2026-05-06 19:33 | 42.52776 | 7.70244 | 38452 ft | 449 kts | 162° |
| 2026-05-06 19:34 | 42.47109 | 7.73695 | 38455 ft | 449 kts | 162° |
| 2026-05-06 19:34 | 42.41400 | 7.77164 | 38457 ft | 449 kts | 162° |
| 2026-05-06 19:35 | 42.35691 | 7.80626 | 38457 ft | 449 kts | 162° |
| 2026-05-06 19:35 | 42.29984 | 7.84080 | 38457 ft | 448 kts | 162° |
| 2026-05-06 19:36 | 42.24292 | 7.87518 | 38465 ft | 448 kts | 162° |
| 2026-05-06 19:36 | 42.18598 | 7.90950 | 38467 ft | 448 kts | 162° |
| 2026-05-06 19:37 | 42.12902 | 7.94377 | 38447 ft | 448 kts | 162° |
| 2026-05-06 19:37 | 42.08180 | 7.97213 | 38440 ft | 447 kts | 162° |
| 2026-05-06 19:38 | 42.01598 | 8.01158 | 38349 ft | 445 kts | 163° |
| 2026-05-06 19:38 | 41.98748 | 8.02767 | 38080 ft | 437 kts | 170° |
| 2026-05-06 19:38 | 41.95814 | 8.03497 | 37794 ft | 425 kts | 180° |
| 2026-05-06 19:39 | 41.92861 | 8.04020 | 37557 ft | 428 kts | 179° |
| 2026-05-06 19:39 | 41.89905 | 8.04537 | 37274 ft | 428 kts | 179° |
| 2026-05-06 19:39 | 41.86947 | 8.05030 | 37018 ft | 428 kts | 179° |
| 2026-05-06 19:39 | 41.83984 | 8.05508 | 36774 ft | 429 kts | 179° |
| 2026-05-06 19:40 | 41.81020 | 8.05981 | 36528 ft | 429 kts | 179° |
| 2026-05-06 19:40 | 41.78054 | 8.06450 | 36300 ft | 429 kts | 179° |
| 2026-05-06 19:40 | 41.75132 | 8.06912 | 36067 ft | 429 kts | 179° |
| 2026-05-06 19:40 | 41.72168 | 8.07381 | 35833 ft | 429 kts | 179° |
| 2026-05-06 19:41 | 41.69201 | 8.07849 | 35576 ft | 429 kts | 179° |
| 2026-05-06 19:41 | 41.66227 | 8.08318 | 35341 ft | 431 kts | 179° |
| 2026-05-06 19:41 | 41.63241 | 8.08787 | 35111 ft | 431 kts | 179° |
| 2026-05-06 19:41 | 41.60262 | 8.09256 | 34884 ft | 431 kts | 179° |
| 2026-05-06 19:42 | 41.57277 | 8.09726 | 34659 ft | 431 kts | 179° |
| 2026-05-06 19:42 | 41.54297 | 8.10193 | 34438 ft | 431 kts | 179° |
| 2026-05-06 19:42 | 41.51311 | 8.10662 | 34213 ft | 432 kts | 179° |
| 2026-05-06 19:42 | 41.48327 | 8.11130 | 33998 ft | 432 kts | 179° |
| 2026-05-06 19:43 | 41.42375 | 8.12061 | 33977 ft | 435 kts | 179° |
| 2026-05-06 19:43 | 41.36355 | 8.13002 | 33974 ft | 435 kts | 179° |
| 2026-05-06 19:44 | 41.30339 | 8.13940 | 33973 ft | 435 kts | 179° |
| 2026-05-06 19:44 | 41.24315 | 8.14878 | 33964 ft | 436 kts | 179° |
| 2026-05-06 19:45 | 41.18279 | 8.15847 | 33973 ft | 439 kts | 175° |
| 2026-05-06 19:45 | 41.15339 | 8.17098 | 33939 ft | 451 kts | 160° |
| 2026-05-06 19:45 | 41.12595 | 8.19198 | 33790 ft | 456 kts | 155° |
| 2026-05-06 19:46 | 41.09872 | 8.21346 | 33534 ft | 453 kts | 156° |
| 2026-05-06 19:46 | 41.07073 | 8.23096 | 33007 ft | 439 kts | 163° |
| 2026-05-06 19:46 | 41.04281 | 8.24682 | 32580 ft | 432 kts | 163° |
| 2026-05-06 19:46 | 41.01534 | 8.26250 | 32216 ft | 433 kts | 163° |
| 2026-05-06 19:47 | 40.98729 | 8.27847 | 31848 ft | 444 kts | 163° |
| 2026-05-06 19:47 | 40.95873 | 8.29472 | 31476 ft | 449 kts | 163° |
| 2026-05-06 19:47 | 40.92984 | 8.31114 | 31038 ft | 453 kts | 163° |
| 2026-05-06 19:47 | 40.90086 | 8.32760 | 30471 ft | 453 kts | 163° |
| 2026-05-06 19:48 | 40.87182 | 8.34407 | 29836 ft | 454 kts | 163° |
| 2026-05-06 19:48 | 40.84314 | 8.36033 | 29156 ft | 456 kts | 163° |
| 2026-05-06 19:48 | 40.81389 | 8.37688 | 28457 ft | 458 kts | 163° |
| 2026-05-06 19:48 | 40.78448 | 8.39352 | 27793 ft | 461 kts | 162° |
| 2026-05-06 19:49 | 40.75495 | 8.41021 | 27158 ft | 463 kts | 162° |
| 2026-05-06 19:49 | 40.72527 | 8.42697 | 26521 ft | 465 kts | 162° |
| 2026-05-06 19:49 | 40.69546 | 8.44378 | 25882 ft | 467 kts | 162° |
| 2026-05-06 19:49 | 40.66549 | 8.46067 | 25268 ft | 469 kts | 162° |
| 2026-05-06 19:50 | 40.63552 | 8.47754 | 24688 ft | 467 kts | 162° |
| 2026-05-06 19:50 | 40.60576 | 8.49427 | 24113 ft | 464 kts | 162° |
| 2026-05-06 19:50 | 40.58611 | 8.50530 | 23715 ft | 462 kts | 162° |
| 2026-05-06 19:50 | 40.55657 | 8.52190 | 23073 ft | 460 kts | 162° |
| 2026-05-06 19:51 | 40.51771 | 8.54370 | 22198 ft | 455 kts | 162° |
| 2026-05-06 19:51 | 40.49807 | 8.55470 | 21758 ft | 452 kts | 162° |
| 2026-05-06 19:51 | 40.46922 | 8.57085 | 21118 ft | 448 kts | 161° |
| 2026-05-06 19:51 | 40.44111 | 8.58658 | 20515 ft | 443 kts | 161° |
| 2026-05-06 19:52 | 40.41282 | 8.60238 | 19908 ft | 439 kts | 161° |
| 2026-05-06 19:52 | 40.38476 | 8.61805 | 19310 ft | 436 kts | 161° |
| 2026-05-06 19:52 | 40.35700 | 8.63353 | 18727 ft | 432 kts | 161° |
| 2026-05-06 19:52 | 40.32945 | 8.64888 | 18140 ft | 428 kts | 160° |
| 2026-05-06 19:53 | 40.30211 | 8.66411 | 17486 ft | 425 kts | 160° |
| 2026-05-06 19:53 | 40.27504 | 8.67917 | 16841 ft | 421 kts | 160° |
| 2026-05-06 19:53 | 40.24819 | 8.69409 | 16207 ft | 417 kts | 160° |
| 2026-05-06 19:53 | 40.22159 | 8.70886 | 15587 ft | 413 kts | 160° |
| 2026-05-06 19:54 | 40.19516 | 8.72353 | 14975 ft | 410 kts | 159° |
| 2026-05-06 19:54 | 40.16899 | 8.73803 | 14375 ft | 407 kts | 159° |
| 2026-05-06 19:54 | 40.14334 | 8.75224 | 13806 ft | 404 kts | 159° |
| 2026-05-06 19:54 | 40.11753 | 8.76652 | 13150 ft | 401 kts | 159° |
| 2026-05-06 19:55 | 40.09193 | 8.78068 | 12502 ft | 398 kts | 159° |
| 2026-05-06 19:55 | 40.06675 | 8.79459 | 11867 ft | 386 kts | 158° |
| 2026-05-06 19:55 | 40.04251 | 8.80798 | 11257 ft | 371 kts | 158° |
| 2026-05-06 19:55 | 40.01912 | 8.82088 | 10661 ft | 359 kts | 158° |
| 2026-05-06 19:56 | 39.99646 | 8.83337 | 10187 ft | 345 kts | 158° |
| 2026-05-06 19:56 | 39.97517 | 8.84510 | 10142 ft | 319 kts | 158° |
| 2026-05-06 19:56 | 39.95544 | 8.85596 | 10134 ft | 297 kts | 158° |
| 2026-05-06 19:56 | 39.93652 | 8.86637 | 10078 ft | 294 kts | 158° |
| 2026-05-06 19:57 | 39.91772 | 8.87670 | 10028 ft | 291 kts | 158° |
| 2026-05-06 19:57 | 39.89962 | 8.88666 | 10012 ft | 274 kts | 158° |
| 2026-05-06 19:57 | 39.88217 | 8.89625 | 9884 ft | 274 kts | 158° |
| 2026-05-06 19:57 | 39.86463 | 8.90588 | 9599 ft | 280 kts | 158° |
| 2026-05-06 19:58 | 39.84658 | 8.91579 | 9205 ft | 283 kts | 158° |
| 2026-05-06 19:58 | 39.82840 | 8.92575 | 8815 ft | 284 kts | 158° |
| 2026-05-06 19:58 | 39.81015 | 8.93550 | 8426 ft | 282 kts | 163° |
| 2026-05-06 19:58 | 39.79096 | 8.93826 | 8029 ft | 276 kts | 184° |
| 2026-05-06 19:59 | 39.77186 | 8.93739 | 7658 ft | 272 kts | 182° |
| 2026-05-06 19:59 | 39.75316 | 8.93666 | 7277 ft | 266 kts | 183° |
| 2026-05-06 19:59 | 39.73487 | 8.93588 | 6922 ft | 260 kts | 182° |
| 2026-05-06 19:59 | 39.71694 | 8.93508 | 6550 ft | 255 kts | 182° |
| 2026-05-06 20:00 | 39.69928 | 8.93429 | 6207 ft | 253 kts | 182° |
| 2026-05-06 20:00 | 39.68164 | 8.93347 | 5870 ft | 254 kts | 182° |
| 2026-05-06 20:00 | 39.66389 | 8.93264 | 5515 ft | 256 kts | 182° |
| 2026-05-06 20:00 | 39.64627 | 8.93182 | 5178 ft | 257 kts | 182° |
| 2026-05-06 20:01 | 39.62831 | 8.93100 | 4838 ft | 259 kts | 182° |
| 2026-05-06 20:01 | 39.61041 | 8.93016 | 4474 ft | 254 kts | 182° |
| 2026-05-06 20:01 | 39.59297 | 8.92935 | 4118 ft | 247 kts | 182° |
| 2026-05-06 20:01 | 39.57603 | 8.92857 | 3763 ft | 241 kts | 182° |
| 2026-05-06 20:02 | 39.55951 | 8.92781 | 3421 ft | 235 kts | 182° |
| 2026-05-06 20:02 | 39.54338 | 8.92707 | 3107 ft | 228 kts | 182° |
| 2026-05-06 20:02 | 39.52787 | 8.92635 | 2805 ft | 218 kts | 181° |
| 2026-05-06 20:02 | 39.51294 | 8.92566 | 2551 ft | 208 kts | 181° |
| 2026-05-06 20:03 | 39.49913 | 8.92501 | 2511 ft | 189 kts | 181° |
| 2026-05-06 20:03 | 39.48641 | 8.92442 | 2443 ft | 177 kts | 181° |
| 2026-05-06 20:03 | 39.47452 | 8.92387 | 2402 ft | 170 kts | 181° |
| 2026-05-06 20:03 | 39.46278 | 8.92333 | 2344 ft | 169 kts | 181° |
| 2026-05-06 20:04 | 39.45097 | 8.92278 | 2307 ft | 170 kts | 181° |
| 2026-05-06 20:04 | 39.43915 | 8.92224 | 2341 ft | 171 kts | 182° |
| 2026-05-06 20:04 | 39.42724 | 8.92169 | 2356 ft | 171 kts | 182° |
| 2026-05-06 20:04 | 39.41533 | 8.92114 | 2339 ft | 171 kts | 181° |
| 2026-05-06 20:05 | 39.40344 | 8.92059 | 2320 ft | 171 kts | 182° |
| 2026-05-06 20:05 | 39.39158 | 8.92004 | 2330 ft | 167 kts | 182° |
| 2026-05-06 20:05 | 39.38017 | 8.91952 | 2328 ft | 162 kts | 182° |
| 2026-05-06 20:05 | 39.36927 | 8.92210 | 2196 ft | 159 kts | 150° |
| 2026-05-06 20:06 | 39.36034 | 8.93059 | 2185 ft | 158 kts | 141° |
| 2026-05-06 20:06 | 39.35213 | 8.93872 | 2220 ft | 143 kts | 143° |
| 2026-05-06 20:06 | 39.34452 | 8.94651 | 2187 ft | 140 kts | 140° |
| 2026-05-06 20:06 | 39.33723 | 8.95486 | 1944 ft | 139 kts | 138° |
| 2026-05-06 20:07 | 39.33011 | 8.96321 | 1689 ft | 137 kts | 137° |
| 2026-05-06 20:07 | 39.32304 | 8.97143 | 1462 ft | 137 kts | 137° |
| 2026-05-06 20:07 | 39.31596 | 8.97962 | 1223 ft | 135 kts | 139° |
| 2026-05-06 20:07 | 39.30893 | 8.98778 | 1058 ft | 136 kts | 138° |
| 2026-05-06 20:08 | 39.30184 | 8.99599 | 892 ft | 137 kts | 138° |
| 2026-05-06 20:08 | 39.29480 | 9.00416 | 730 ft | 136 kts | 139° |
| 2026-05-06 20:08 | 39.28777 | 9.01233 | 587 ft | 136 kts | 139° |
| 2026-05-06 20:08 | 39.28069 | 9.02050 | 466 ft | 136 kts | 139° |
| 2026-05-06 20:09 | 39.27369 | 9.02862 | 308 ft | 135 kts | 139° |
| 2026-05-06 20:09 | 39.26664 | 9.03683 | 180 ft | 136 kts | 139° |
| 2026-05-06 20:09 | 39.25959 | 9.04490 | 27 ft | 130 kts | 139° |
| 2026-05-06 20:09 | 39.25364 | 9.05179 | 16 ft | 92 kts | 138° |
| 2026-05-06 20:10 | 39.25070 | 9.05519 | 18 ft | 12 kts | 137° |
| 2026-05-06 20:10 | 39.25050 | 9.05604 | 21 ft | 12 kts | 62° |
| 2026-05-06 20:10 | 39.25069 | 9.05648 | 19 ft | 0 kts | 60° |
| 2026-05-06 20:10 | 39.25071 | 9.05654 | 18 ft | 3 kts | 60° |
| 2026-05-06 20:11 | 39.25095 | 9.05709 | 18 ft | 9 kts | 60° |
| 2026-05-06 20:11 | 39.25126 | 9.05779 | 19 ft | 8 kts | 61° |
| 2026-05-06 20:11 | 39.25152 | 9.05838 | 17 ft | 5 kts | 60° |
| 2026-05-06 20:11 | 39.25154 | 9.05881 | 17 ft | 6 kts | 117° |
| 2026-05-06 20:12 | 39.25151 | 9.05934 | 17 ft | 8 kts | 59° |
| 2026-05-06 20:12 | 39.25176 | 9.05979 | 17 ft | 0 kts | 51° |
| 2026-05-06 20:12 | 39.25198 | 9.05983 | 17 ft | 7 kts | 342° |
| 2026-05-06 20:12 | 39.25231 | 9.05953 | 17 ft | 6 kts | 323° |
| 2026-05-06 20:13 | 39.25242 | 9.05941 | 17 ft | 0 kts | 323° |
| 2026-05-06 20:13 | 39.25238 | 9.05946 | 17 ft | 2 kts | 322° |
| 2026-05-06 20:13 | 39.25236 | 9.05948 | 17 ft | 0 kts | 322° |
| 2026-05-06 20:13 | 39.25236 | 9.05947 | 17 ft | 0 kts | 322° |